createdAt,value
2017-09-04T00:00:37.361Z,8.50
2017-09-04T00:03:04.878Z,8.50
2017-09-04T00:05:32.418Z,8.50
2017-09-04T00:07:59.936Z,8.50
2017-09-04T00:10:27.481Z,8.50
2017-09-04T00:12:54.997Z,8.50
2017-09-04T00:15:22.534Z,8.40
2017-09-04T00:17:50.050Z,8.40
2017-09-04T00:20:17.591Z,8.40
2017-09-04T00:22:45.104Z,8.40
2017-09-04T00:25:12.646Z,8.40
2017-09-04T00:27:40.168Z,8.40
2017-09-04T00:30:07.712Z,8.30
2017-09-04T00:32:35.234Z,8.20
2017-09-04T00:35:02.763Z,8.20
2017-09-04T00:37:30.304Z,8.20
2017-09-04T00:39:57.822Z,8.20
2017-09-04T00:42:25.362Z,8.30
2017-09-04T00:44:52.878Z,8.30
2017-09-04T00:47:20.420Z,8.30
2017-09-04T00:49:47.939Z,8.20
2017-09-04T00:52:15.474Z,8.10
2017-09-04T00:54:42.991Z,8.10
2017-09-04T00:57:10.533Z,8.00
2017-09-04T00:59:38.058Z,8.00
2017-09-04T01:02:05.605Z,8.00
2017-09-04T01:04:33.135Z,8.00
2017-09-04T01:07:00.679Z,7.90
2017-09-04T01:09:28.202Z,7.90
2017-09-04T01:11:55.718Z,7.80
2017-09-04T01:14:23.259Z,7.80
2017-09-04T01:16:50.766Z,7.80
2017-09-04T01:19:18.304Z,7.70
2017-09-04T01:21:45.827Z,7.70
2017-09-04T01:24:13.374Z,7.70
2017-09-04T01:26:40.888Z,7.70
2017-09-04T01:29:08.431Z,7.70
2017-09-04T01:31:35.951Z,7.60
2017-09-04T01:34:03.494Z,7.60
2017-09-04T01:36:31.014Z,7.60
2017-09-04T01:38:58.554Z,7.60
2017-09-04T01:41:26.070Z,7.60
2017-09-04T01:43:53.620Z,7.60
2017-09-04T01:46:21.137Z,7.60
2017-09-04T01:48:48.650Z,7.60
2017-09-04T01:51:16.194Z,7.60
2017-09-04T01:53:43.711Z,7.50
2017-09-04T01:56:11.247Z,7.40
2017-09-04T01:58:38.762Z,7.40
2017-09-04T02:01:06.303Z,7.40
2017-09-04T02:03:33.831Z,7.40
2017-09-04T02:06:01.371Z,7.40
2017-09-04T02:08:28.893Z,7.30
2017-09-04T02:10:56.435Z,7.30
2017-09-04T02:13:23.950Z,7.20
2017-09-04T02:15:51.488Z,7.20
2017-09-04T02:18:19.010Z,7.20
2017-09-04T02:20:46.555Z,7.20
2017-09-04T02:23:14.072Z,7.20
2017-09-04T02:25:41.587Z,7.20
2017-09-04T02:28:09.117Z,7.20
2017-09-04T02:30:36.636Z,7.20
2017-09-04T02:33:04.175Z,7.20
2017-09-04T02:35:31.699Z,7.10
2017-09-04T02:37:59.238Z,7.10
2017-09-04T02:40:26.753Z,7.10
2017-09-04T02:42:54.291Z,7.10
2017-09-04T02:45:21.806Z,7.10
2017-09-04T02:47:49.348Z,7.00
2017-09-04T02:50:16.868Z,7.00
2017-09-04T02:52:44.406Z,7.00
2017-09-04T02:55:11.935Z,6.90
2017-09-04T02:57:39.475Z,6.90
2017-09-04T03:00:06.996Z,6.90
2017-09-04T03:02:34.521Z,6.90
2017-09-04T03:05:02.068Z,7.00
2017-09-04T03:07:29.591Z,7.00
2017-09-04T03:09:57.123Z,7.00
2017-09-04T03:12:24.635Z,7.00
2017-09-04T03:14:52.177Z,7.00
2017-09-04T03:17:19.701Z,7.00
2017-09-04T03:19:47.249Z,6.90
2017-09-04T03:22:15.563Z,6.80
2017-09-04T03:24:43.099Z,6.80
2017-09-04T03:27:10.618Z,6.80
2017-09-04T03:29:38.151Z,6.80
2017-09-04T03:32:05.668Z,6.80
2017-09-04T03:34:33.190Z,6.80
2017-09-04T03:37:00.724Z,6.80
2017-09-04T03:39:28.245Z,6.80
2017-09-04T03:41:55.783Z,6.80
2017-09-04T03:44:23.299Z,6.80
2017-09-04T03:46:50.834Z,6.70
2017-09-04T03:49:18.359Z,6.70
2017-09-04T03:51:45.902Z,6.60
2017-09-04T03:54:13.423Z,6.60
2017-09-04T03:56:40.962Z,6.60
2017-09-04T03:59:08.474Z,6.70
2017-09-04T04:01:36.015Z,6.70
2017-09-04T04:04:03.530Z,6.60
2017-09-04T04:06:31.046Z,6.60
2017-09-04T04:08:58.588Z,6.60
2017-09-04T04:11:26.117Z,6.50
2017-09-04T04:13:53.650Z,6.50
2017-09-04T04:16:21.172Z,6.50
2017-09-04T04:18:48.706Z,6.50
2017-09-04T04:21:16.223Z,6.50
2017-09-04T04:23:43.759Z,6.40
2017-09-04T04:26:11.270Z,6.30
2017-09-04T04:28:38.822Z,6.20
2017-09-04T04:31:06.334Z,6.20
2017-09-04T04:33:33.845Z,6.20
2017-09-04T04:36:01.383Z,6.10
2017-09-04T04:38:28.894Z,6.20
2017-09-04T04:40:56.432Z,6.20
2017-09-04T04:43:23.945Z,6.20
2017-09-04T04:45:51.474Z,6.30
2017-09-04T04:48:19.035Z,6.30
2017-09-04T04:50:47.330Z,6.40
2017-09-04T04:53:14.854Z,6.40
2017-09-04T04:55:42.390Z,6.40
2017-09-04T04:58:09.908Z,6.50
2017-09-04T05:00:37.443Z,6.50
2017-09-04T05:03:04.962Z,6.60
2017-09-04T05:05:32.494Z,6.60
2017-09-04T05:08:00.010Z,6.70
2017-09-04T05:10:28.289Z,6.90
2017-09-04T05:12:55.859Z,6.90
2017-09-04T05:15:23.358Z,7.60
2017-09-04T05:17:50.898Z,8.60
2017-09-04T05:20:18.419Z,9.50
2017-09-04T05:22:45.958Z,10.30
2017-09-04T05:25:13.473Z,10.90
2017-09-04T05:27:41.016Z,11.50
2017-09-04T05:30:08.545Z,11.90
2017-09-04T05:32:36.091Z,12.40
2017-09-04T05:35:03.614Z,12.80
2017-09-04T05:37:31.168Z,13.00
2017-09-04T05:39:58.685Z,13.00
2017-09-04T05:42:26.221Z,13.10
2017-09-04T05:44:53.762Z,13.30
2017-09-04T05:47:21.284Z,13.60
2017-09-04T05:49:48.822Z,14.20
2017-09-04T05:52:16.338Z,14.80
2017-09-04T05:54:43.874Z,15.40
2017-09-04T05:57:11.394Z,15.80
2017-09-04T05:59:38.950Z,16.10
2017-09-04T06:02:06.476Z,16.40
2017-09-04T06:04:34.009Z,16.70
2017-09-04T06:07:01.527Z,16.90
2017-09-04T06:09:29.062Z,17.00
2017-09-04T06:11:56.581Z,17.20
2017-09-04T06:14:24.135Z,17.30
2017-09-04T06:16:51.654Z,17.60
2017-09-04T06:19:19.166Z,17.90
2017-09-04T06:21:46.710Z,18.20
2017-09-04T06:24:14.222Z,18.50
2017-09-04T06:26:41.755Z,18.90
2017-09-04T06:29:09.295Z,19.30
2017-09-04T06:31:36.830Z,19.60
2017-09-04T06:34:04.351Z,19.80
2017-09-04T06:36:31.892Z,20.10
2017-09-04T06:38:59.406Z,20.40
2017-09-04T06:41:26.937Z,20.90
2017-09-04T06:43:54.459Z,21.10
2017-09-04T06:46:21.995Z,21.20
2017-09-04T06:48:49.510Z,21.20
2017-09-04T06:51:17.061Z,20.90
2017-09-04T06:53:44.580Z,20.90
2017-09-04T06:56:12.098Z,21.10
2017-09-04T06:58:39.638Z,21.10
2017-09-04T07:01:07.153Z,21.10
2017-09-04T07:03:34.686Z,21.00
2017-09-04T07:06:02.211Z,20.90
2017-09-04T07:08:29.755Z,21.00
2017-09-04T07:10:57.273Z,21.00
2017-09-04T07:13:24.818Z,20.90
2017-09-04T07:15:52.337Z,21.00
2017-09-04T07:18:19.873Z,21.00
2017-09-04T07:20:47.386Z,21.00
2017-09-04T07:23:14.924Z,21.20
2017-09-04T07:25:42.437Z,21.40
2017-09-04T07:28:09.949Z,21.50
2017-09-04T07:30:37.490Z,22.00
2017-09-04T07:33:05.019Z,22.50
2017-09-04T07:35:32.557Z,22.80
2017-09-04T07:38:00.075Z,22.90
2017-09-04T07:40:27.619Z,23.10
2017-09-04T07:42:55.138Z,23.70
2017-09-04T07:45:22.675Z,24.00
2017-09-04T07:47:50.200Z,24.10
2017-09-04T07:50:17.738Z,23.70
2017-09-04T07:52:45.250Z,23.40
2017-09-04T07:55:12.795Z,23.30
2017-09-04T07:57:40.314Z,23.50
2017-09-04T08:00:07.840Z,23.80
2017-09-04T08:02:35.378Z,24.20
2017-09-04T08:05:02.894Z,24.40
2017-09-04T08:07:30.430Z,24.50
2017-09-04T08:09:58.039Z,24.50
2017-09-04T08:12:25.580Z,24.60
2017-09-04T08:14:53.109Z,24.70
2017-09-04T08:17:21.411Z,24.70
2017-09-04T08:19:48.926Z,24.70
2017-09-04T08:22:16.474Z,25.10
2017-09-04T08:24:43.996Z,24.90
2017-09-04T08:27:11.539Z,24.40
2017-09-04T08:29:39.053Z,24.40
2017-09-04T08:32:06.569Z,24.60
2017-09-04T08:34:34.105Z,25.10
2017-09-04T08:37:01.639Z,25.50
2017-09-04T08:39:29.181Z,25.50
2017-09-04T08:41:56.698Z,25.70
2017-09-04T08:44:24.234Z,25.50
2017-09-04T08:46:51.746Z,25.20
2017-09-04T08:49:19.282Z,25.20
2017-09-04T08:51:46.811Z,25.40
2017-09-04T08:54:14.354Z,25.30
2017-09-04T08:56:41.874Z,25.10
2017-09-04T08:59:09.397Z,25.10
2017-09-04T09:01:36.936Z,25.10
2017-09-04T09:04:04.460Z,24.90
2017-09-04T09:06:31.995Z,24.60
2017-09-04T09:08:59.512Z,24.60
2017-09-04T09:11:27.052Z,24.90
2017-09-04T09:13:54.580Z,25.20
2017-09-04T09:16:22.122Z,25.50
2017-09-04T09:18:49.638Z,25.60
2017-09-04T09:21:17.185Z,26.10
2017-09-04T09:23:44.715Z,26.30
2017-09-04T09:26:12.248Z,26.70
2017-09-04T09:28:39.792Z,26.80
2017-09-04T09:31:07.318Z,26.50
2017-09-04T09:33:34.860Z,26.30
2017-09-04T09:36:02.375Z,26.50
2017-09-04T09:38:29.917Z,27.20
2017-09-04T09:40:57.430Z,26.80
2017-09-04T09:43:24.970Z,26.90
2017-09-04T09:45:53.250Z,26.90
2017-09-04T09:48:20.801Z,26.90
2017-09-04T09:50:48.385Z,26.60
2017-09-04T09:53:15.904Z,26.70
2017-09-04T09:55:43.438Z,26.80
2017-09-04T09:58:10.955Z,26.80
2017-09-04T10:00:38.490Z,26.50
2017-09-04T10:03:06.011Z,25.90
2017-09-04T10:05:33.558Z,25.50
2017-09-04T10:08:01.074Z,25.20
2017-09-04T10:10:28.611Z,25.20
2017-09-04T10:12:56.135Z,25.90
2017-09-04T10:15:23.671Z,25.80
2017-09-04T10:17:51.187Z,25.90
2017-09-04T10:20:18.722Z,26.30
2017-09-04T10:22:46.248Z,25.90
2017-09-04T10:25:13.766Z,26.10
2017-09-04T10:27:41.306Z,26.30
2017-09-04T10:30:08.836Z,26.50
2017-09-04T10:32:36.374Z,26.70
2017-09-04T10:35:03.887Z,27.10
2017-09-04T10:37:31.422Z,26.80
2017-09-04T10:39:58.939Z,26.50
2017-09-04T10:42:26.474Z,26.50
2017-09-04T10:44:53.990Z,26.80
2017-09-04T10:47:21.534Z,27.40
2017-09-04T10:49:49.060Z,27.60
2017-09-04T10:52:16.603Z,27.60
2017-09-04T10:54:44.147Z,28.40
2017-09-04T10:57:11.662Z,28.90
2017-09-04T10:59:39.195Z,29.30
2017-09-04T11:02:06.715Z,28.90
2017-09-04T11:04:34.248Z,28.40
2017-09-04T11:07:01.773Z,27.80
2017-09-04T11:09:29.316Z,27.80
2017-09-04T11:11:56.838Z,28.00
2017-09-04T11:14:24.374Z,27.80
2017-09-04T11:16:51.894Z,28.10
2017-09-04T11:19:19.440Z,28.30
2017-09-04T11:21:46.972Z,28.00
2017-09-04T11:24:14.510Z,27.30
2017-09-04T11:26:42.035Z,26.60
2017-09-04T11:29:09.581Z,26.60
2017-09-04T11:31:37.141Z,26.90
2017-09-04T11:34:04.646Z,27.00
2017-09-04T11:36:32.183Z,27.00
2017-09-04T11:38:59.710Z,26.90
2017-09-04T11:41:27.252Z,26.50
2017-09-04T11:43:54.776Z,25.90
2017-09-04T11:46:22.318Z,25.20
2017-09-04T11:48:49.843Z,25.10
2017-09-04T11:51:17.382Z,25.50
2017-09-04T11:53:44.899Z,25.90
2017-09-04T11:56:12.434Z,26.20
2017-09-04T11:58:39.959Z,26.60
2017-09-04T12:01:07.500Z,26.70
2017-09-04T12:03:35.023Z,26.90
2017-09-04T12:06:02.584Z,26.60
2017-09-04T12:08:30.106Z,26.20
2017-09-04T12:10:57.635Z,26.30
2017-09-04T12:13:25.180Z,26.40
2017-09-04T12:15:52.700Z,26.80
2017-09-04T12:18:20.234Z,26.80
2017-09-04T12:20:47.752Z,26.20
2017-09-04T12:23:15.292Z,25.70
2017-09-04T12:25:42.805Z,24.60
2017-09-04T12:28:10.342Z,23.90
2017-09-04T12:30:37.866Z,23.70
2017-09-04T12:33:05.403Z,24.00
2017-09-04T12:35:32.926Z,24.60
2017-09-04T12:38:00.470Z,25.10
2017-09-04T12:40:27.984Z,25.40
2017-09-04T12:42:55.530Z,25.60
2017-09-04T12:45:23.050Z,25.40
2017-09-04T12:47:50.566Z,25.40
2017-09-04T12:50:18.111Z,25.50
2017-09-04T12:52:45.627Z,25.90
2017-09-04T12:55:13.166Z,26.10
2017-09-04T12:57:40.688Z,26.00
2017-09-04T13:00:08.234Z,25.40
2017-09-04T13:02:35.758Z,25.40
2017-09-04T13:05:03.303Z,25.50
2017-09-04T13:07:45.699Z,25.40
2017-09-04T13:10:18.854Z,25.10
2017-09-04T13:12:46.374Z,24.90
2017-09-04T13:15:19.667Z,25.30
2017-09-04T13:17:52.945Z,25.70
2017-09-04T13:20:26.118Z,25.70
2017-09-04T13:22:59.189Z,25.30
2017-09-04T13:28:29.005Z,25.10
2017-09-04T13:31:02.143Z,24.80
2017-09-04T13:33:35.387Z,24.80
2017-09-04T13:36:08.538Z,25.20
2017-09-04T13:38:41.802Z,25.20
2017-09-04T13:41:15.007Z,25.10
2017-09-04T13:43:48.141Z,25.00
2017-09-04T13:46:21.267Z,25.10
2017-09-04T13:48:54.394Z,25.50
2017-09-04T13:51:27.570Z,25.70
2017-09-04T13:57:08.651Z,24.90
2017-09-04T13:59:56.880Z,24.50
2017-09-04T14:02:30.051Z,24.40
2017-09-04T14:05:03.243Z,24.10
2017-09-04T14:07:36.506Z,24.00
2017-09-04T14:13:23.510Z,24.40
2017-09-04T14:18:52.797Z,24.40
2017-09-04T14:21:20.318Z,24.30
2017-09-04T14:23:47.863Z,24.20
2017-09-04T14:26:15.392Z,24.00
2017-09-04T14:28:42.937Z,23.50
2017-09-04T14:31:10.454Z,23.30
2017-09-04T14:33:38.007Z,23.30
2017-09-04T14:36:05.532Z,23.70
2017-09-04T14:38:33.062Z,24.00
2017-09-04T14:44:11.488Z,24.20
2017-09-04T14:49:43.638Z,23.80
2017-09-04T14:52:11.154Z,23.40
2017-09-04T14:54:38.686Z,23.30
2017-09-04T14:57:06.203Z,23.20
2017-09-04T14:59:33.742Z,23.30
2017-09-04T15:02:01.267Z,23.40
2017-09-04T15:04:28.792Z,23.60
2017-09-04T15:06:56.336Z,23.60
2017-09-04T15:09:23.857Z,23.40
2017-09-04T15:11:51.399Z,23.30
2017-09-04T15:14:18.914Z,23.30
2017-09-04T15:16:46.449Z,23.50
2017-09-04T15:19:13.970Z,23.60
2017-09-04T15:21:41.507Z,23.70
2017-09-04T15:24:09.026Z,23.70
2017-09-04T15:26:36.567Z,23.60
2017-09-04T15:29:04.091Z,23.60
2017-09-04T15:31:31.627Z,23.60
2017-09-04T15:33:59.151Z,23.40
2017-09-04T15:36:26.683Z,23.30
2017-09-04T15:38:54.227Z,23.30
2017-09-04T15:41:21.745Z,23.30
2017-09-04T15:43:49.282Z,23.20
2017-09-04T15:46:16.802Z,23.20
2017-09-04T15:48:44.338Z,23.30
2017-09-04T15:51:11.854Z,23.10
2017-09-04T15:53:39.397Z,23.00
2017-09-04T15:56:06.951Z,22.90
2017-09-04T15:58:34.471Z,22.90
2017-09-04T16:01:01.985Z,22.90
2017-09-04T16:03:29.561Z,22.90
2017-09-04T16:05:58.574Z,22.80
2017-09-04T16:08:26.092Z,22.70
2017-09-04T16:10:53.636Z,22.50
2017-09-04T16:13:21.159Z,22.30
2017-09-04T16:15:51.170Z,22.40
2017-09-04T16:21:30.190Z,22.10
2017-09-04T16:27:02.042Z,22.00
2017-09-04T16:29:31.264Z,21.90
2017-09-04T16:31:58.782Z,21.70
2017-09-04T16:34:31.990Z,21.60
2017-09-04T16:37:18.238Z,21.40
2017-09-04T16:39:46.707Z,21.30
2017-09-04T16:42:14.227Z,21.30
2017-09-04T16:44:41.767Z,21.30
2017-09-04T16:47:10.923Z,21.20
2017-09-04T16:49:39.243Z,21.10
2017-09-04T16:52:07.354Z,21.10
2017-09-04T16:54:45.583Z,21.00
2017-09-04T16:57:13.094Z,21.00
2017-09-04T16:59:40.639Z,20.70
2017-09-04T17:02:08.160Z,20.50
2017-09-04T17:04:35.683Z,20.30
2017-09-04T17:07:03.223Z,20.10
2017-09-04T17:09:30.755Z,19.90
2017-09-04T17:11:58.290Z,19.60
2017-09-04T17:14:25.807Z,19.30
2017-09-04T17:17:03.263Z,19.00
2017-09-04T17:19:31.579Z,18.90
2017-09-04T17:22:13.994Z,18.80
2017-09-04T17:27:44.055Z,18.40
2017-09-04T17:30:11.570Z,18.30
2017-09-04T17:32:39.109Z,18.10
2017-09-04T17:35:06.627Z,17.90
2017-09-04T17:37:34.163Z,17.70
2017-09-04T17:40:01.693Z,17.60
2017-09-04T17:42:29.231Z,17.60
2017-09-04T17:44:56.760Z,17.50
2017-09-04T17:47:24.303Z,17.30
2017-09-04T17:49:51.827Z,17.20
2017-09-04T17:52:19.343Z,17.10
2017-09-04T17:54:46.894Z,17.00
2017-09-04T17:57:14.424Z,16.90
2017-09-04T17:59:41.967Z,16.80
2017-09-04T18:02:09.488Z,16.70
2017-09-04T18:04:37.040Z,16.60
2017-09-04T18:07:04.564Z,16.50
2017-09-04T18:09:32.098Z,16.40
2017-09-04T18:11:59.620Z,16.30
2017-09-04T18:14:27.167Z,16.10
2017-09-04T18:16:54.719Z,15.90
2017-09-04T18:19:22.239Z,15.80
2017-09-04T18:21:49.780Z,15.60
2017-09-04T18:24:17.302Z,15.50
2017-09-04T18:26:44.837Z,15.40
2017-09-04T18:29:12.360Z,15.40
2017-09-04T18:31:39.893Z,15.40
2017-09-04T18:34:07.410Z,15.30
2017-09-04T18:36:34.954Z,15.30
2017-09-04T18:39:02.466Z,15.20
2017-09-04T18:41:30.011Z,15.20
2017-09-04T18:43:57.529Z,15.20
2017-09-04T18:46:25.067Z,15.20
2017-09-04T18:48:52.582Z,15.00
2017-09-04T18:51:20.098Z,14.90
2017-09-04T18:53:47.637Z,14.70
2017-09-04T18:56:15.164Z,14.50
2017-09-04T18:58:42.698Z,14.40
2017-09-04T19:01:10.213Z,14.40
2017-09-04T19:03:37.755Z,14.30
2017-09-04T19:06:05.274Z,14.20
2017-09-04T19:08:32.813Z,14.10
2017-09-04T19:11:00.335Z,14.00
2017-09-04T19:13:27.893Z,14.00
2017-09-04T19:15:55.411Z,13.90
2017-09-04T19:18:22.925Z,13.80
2017-09-04T19:20:50.469Z,13.70
2017-09-04T19:23:17.990Z,13.70
2017-09-04T19:25:45.534Z,13.70
2017-09-04T19:28:13.055Z,13.70
2017-09-04T19:30:40.599Z,13.60
2017-09-04T19:33:08.123Z,13.40
2017-09-04T19:35:35.655Z,13.30
2017-09-04T19:38:03.170Z,13.30
2017-09-04T19:40:30.711Z,13.40
2017-09-04T19:42:58.234Z,13.40
2017-09-04T19:45:25.776Z,13.40
2017-09-04T19:47:53.290Z,13.40
2017-09-04T19:50:20.837Z,13.40
2017-09-04T19:52:48.362Z,13.40
2017-09-04T19:55:15.883Z,13.40
2017-09-04T19:57:43.424Z,13.30
2017-09-04T20:00:10.949Z,13.10
2017-09-04T20:02:38.484Z,12.90
2017-09-04T20:05:06.003Z,12.80
2017-09-04T20:07:33.548Z,12.60
2017-09-04T20:10:01.078Z,12.50
2017-09-04T20:12:28.619Z,12.40
2017-09-04T20:14:56.135Z,12.30
2017-09-04T20:17:23.674Z,12.20
2017-09-04T20:19:51.191Z,12.20
2017-09-04T20:22:18.730Z,12.30
2017-09-04T20:24:46.259Z,12.30
2017-09-04T20:27:13.784Z,12.30
2017-09-04T20:29:41.322Z,12.30
2017-09-04T20:32:08.849Z,12.40
2017-09-04T20:34:36.386Z,12.40
2017-09-04T20:37:03.908Z,12.30
2017-09-04T20:39:31.446Z,12.30
2017-09-04T20:41:58.961Z,12.20
2017-09-04T20:44:26.506Z,12.00
2017-09-04T20:46:54.026Z,11.80
2017-09-04T20:49:21.557Z,11.80
2017-09-04T20:51:49.073Z,11.90
2017-09-04T20:54:16.589Z,11.90
2017-09-04T20:56:44.133Z,11.90
2017-09-04T20:59:11.655Z,12.00
2017-09-04T21:01:39.197Z,12.00
2017-09-04T21:04:06.727Z,12.00
2017-09-04T21:06:34.270Z,11.90
2017-09-04T21:09:01.794Z,11.80
2017-09-04T21:11:29.336Z,11.60
2017-09-04T21:13:56.860Z,11.60
2017-09-04T21:16:24.405Z,11.50
2017-09-04T21:18:51.918Z,11.50
2017-09-04T21:21:19.431Z,11.50
2017-09-04T21:23:46.971Z,11.50
2017-09-04T21:26:14.486Z,11.50
2017-09-04T21:28:42.019Z,11.60
2017-09-04T21:31:09.538Z,11.60
2017-09-04T21:33:37.078Z,11.60
2017-09-04T21:36:04.605Z,11.50
2017-09-04T21:38:32.143Z,11.50
2017-09-04T21:40:59.670Z,11.50
2017-09-04T21:43:27.223Z,11.50
2017-09-04T21:45:54.735Z,11.50
2017-09-04T21:48:22.250Z,11.40
2017-09-04T21:50:49.789Z,11.40
2017-09-04T21:53:17.303Z,11.30
2017-09-04T21:55:44.838Z,11.30
2017-09-04T21:58:12.356Z,11.20
2017-09-04T22:00:39.891Z,11.10
2017-09-04T22:03:07.410Z,11.00
2017-09-04T22:05:34.954Z,11.00
2017-09-04T22:08:02.474Z,11.00
2017-09-04T22:10:30.010Z,10.90
2017-09-04T22:12:57.539Z,10.90
2017-09-04T22:15:25.089Z,10.90
2017-09-04T22:17:52.609Z,10.90
2017-09-04T22:20:20.126Z,11.00
2017-09-04T22:22:47.662Z,11.00
2017-09-04T22:25:15.181Z,11.00
2017-09-04T22:27:42.719Z,10.90
2017-09-04T22:30:10.240Z,10.80
2017-09-04T22:32:37.782Z,10.80
2017-09-04T22:35:05.298Z,10.80
2017-09-04T22:37:32.834Z,10.80
2017-09-04T22:40:00.346Z,10.80
2017-09-04T22:42:28.641Z,10.80
2017-09-04T22:44:56.927Z,10.70
2017-09-04T22:47:24.466Z,10.70
2017-09-04T22:49:52.015Z,10.70
2017-09-04T22:52:19.542Z,10.70
2017-09-04T22:54:47.088Z,10.70
2017-09-04T22:57:14.611Z,10.60
2017-09-04T22:59:42.146Z,10.70
2017-09-04T23:02:09.664Z,10.60
2017-09-04T23:04:37.211Z,10.60
2017-09-04T23:07:04.730Z,10.50
2017-09-04T23:09:32.267Z,10.50
2017-09-04T23:11:59.778Z,10.40
2017-09-04T23:14:27.327Z,10.30
2017-09-04T23:16:54.841Z,10.40
2017-09-04T23:19:22.366Z,10.30
2017-09-04T23:21:49.903Z,10.20
2017-09-04T23:24:17.436Z,10.10
2017-09-04T23:26:44.988Z,10.10
2017-09-04T23:29:12.509Z,10.00
2017-09-04T23:31:40.048Z,10.00
2017-09-04T23:34:07.578Z,10.10
2017-09-04T23:36:35.120Z,10.10
2017-09-04T23:39:02.650Z,10.10
2017-09-04T23:41:30.194Z,10.10
2017-09-04T23:43:57.709Z,10.00
2017-09-04T23:46:25.252Z,10.00
2017-09-04T23:48:52.764Z,9.90
2017-09-04T23:51:20.318Z,9.90
2017-09-04T23:53:47.835Z,9.90
2017-09-04T23:56:15.372Z,9.90
2017-09-04T23:58:42.902Z,9.80
